Nikolaevsk, Alaska
Current Conditions -  °F | °C
As of 8:03 AM on Thursday 30 Oct 2014 (Local Time) from PAHO Reporting Station
Overcast Overcast  
Wind Chill:   Ceiling: 3700
Heat Index:   Visibility: 10mi
Dew Point: -3°   Wind: 5mph
Humidity: 67%   Direction: 60°ENE
Pressure: 29.57"   Gusts: NA
Location:  59.8183°N, 151.638°W
Report Text: PAHO 301603Z 06004KT 10SM SCT021 OVC037 03/M03 A2957 RMK AO2 T00281028
Loading
Personal Weather Stations






























Interactive Weather Map
Tropical Storm Tracking
New forecast layout! Learn more

10-Day Weather Forecast

Advertisements
Track Severe Weather on mobile